Point Roberts, Washington
Current Conditions -  °F | °C
As of 6:28 AM on Monday 20 Oct 2014 (Local Time) from CYVR Reporting Station
Rain Showers Rain Showers  
Wind Chill: 57°   Ceiling: 8000
Heat Index: 57°   Visibility: 10mi
Dew Point: 55°   Wind: 9mph
Humidity: 94%   Direction: 110°ESE
Pressure: 29.67"   Gusts: NA
Location:  48.99°N, 123.08°W
Report Text: CYVR 201328Z 11008KT 10SM -SHRA FEW008 SCT060 OVC080 14/13 A2967 RMK SF2SC2AC4 CVCTV CLD EMBD SLP046 DENSITY ALT 100FT
Loading
Personal Weather Stations






























Interactive Weather Map
Tropical Storm Tracking
New forecast layout! Learn more

10-Day Weather Forecast

Advertisements
Track Severe Weather on mobile